sensor_id;sensor_type;location;lat;lon;timestamp;P1;durP1;ratioP1;P2;durP2;ratioP2
26060;SDS011;36331;51.378;0.018;2023-03-14T00:01:11;21.17;;;4.68;;
26060;SDS011;36331;51.378;0.018;2023-03-14T00:03:41;23.65;;;4.15;;
26060;SDS011;36331;51.378;0.018;2023-03-14T00:06:10;23.20;;;4.22;;
26060;SDS011;36331;51.378;0.018;2023-03-14T00:08:39;18.40;;;3.42;;
26060;SDS011;36331;51.378;0.018;2023-03-14T00:11:09;19.63;;;4.55;;
26060;SDS011;36331;51.378;0.018;2023-03-14T00:13:39;18.38;;;3.83;;
26060;SDS011;36331;51.378;0.018;2023-03-14T00:16:10;19.38;;;4.07;;
26060;SDS011;36331;51.378;0.018;2023-03-14T00:18:40;22.48;;;3.55;;
26060;SDS011;36331;51.378;0.018;2023-03-14T00:21:09;23.48;;;4.53;;
26060;SDS011;36331;51.378;0.018;2023-03-14T00:23:39;17.83;;;4.40;;
26060;SDS011;36331;51.378;0.018;2023-03-14T00:26:09;12.88;;;3.10;;
26060;SDS011;36331;51.378;0.018;2023-03-14T00:28:39;14.82;;;4.03;;
26060;SDS011;36331;51.378;0.018;2023-03-14T00:31:11;12.43;;;2.67;;
26060;SDS011;36331;51.378;0.018;2023-03-14T00:33:40;14.30;;;3.22;;
26060;SDS011;36331;51.378;0.018;2023-03-14T00:36:11;13.00;;;2.50;;
26060;SDS011;36331;51.378;0.018;2023-03-14T00:38:41;10.55;;;1.88;;
26060;SDS011;36331;51.378;0.018;2023-03-14T00:41:11;7.60;;;1.88;;
26060;SDS011;36331;51.378;0.018;2023-03-14T00:43:41;6.95;;;1.80;;
26060;SDS011;36331;51.378;0.018;2023-03-14T00:46:12;5.03;;;1.23;;
26060;SDS011;36331;51.378;0.018;2023-03-14T00:48:44;5.35;;;1.02;;
26060;SDS011;36331;51.378;0.018;2023-03-14T00:51:14;5.90;;;1.02;;
26060;SDS011;36331;51.378;0.018;2023-03-14T00:53:43;4.35;;;0.73;;
26060;SDS011;36331;51.378;0.018;2023-03-14T00:56:13;8.68;;;1.38;;
26060;SDS011;36331;51.378;0.018;2023-03-14T00:58:42;4.55;;;1.13;;
26060;SDS011;36331;51.378;0.018;2023-03-14T01:01:14;6.10;;;1.23;;
26060;SDS011;36331;51.378;0.018;2023-03-14T01:03:44;5.32;;;1.33;;
26060;SDS011;36331;51.378;0.018;2023-03-14T01:06:16;5.97;;;1.33;;
26060;SDS011;36331;51.378;0.018;2023-03-14T01:08:46;4.53;;;0.80;;
26060;SDS011;36331;51.378;0.018;2023-03-14T01:11:16;3.38;;;1.02;;
26060;SDS011;36331;51.378;0.018;2023-03-14T01:13:46;3.42;;;0.77;;
26060;SDS011;36331;51.378;0.018;2023-03-14T01:16:17;4.28;;;0.98;;
26060;SDS011;36331;51.378;0.018;2023-03-14T01:18:48;7.13;;;1.08;;
26060;SDS011;36331;51.378;0.018;2023-03-14T01:21:19;6.15;;;1.85;;
26060;SDS011;36331;51.378;0.018;2023-03-14T01:23:48;5.90;;;2.08;;
26060;SDS011;36331;51.378;0.018;2023-03-14T01:26:20;5.80;;;0.65;;
26060;SDS011;36331;51.378;0.018;2023-03-14T01:28:51;1.52;;;0.60;;
26060;SDS011;36331;51.378;0.018;2023-03-14T01:31:23;4.03;;;0.55;;
26060;SDS011;36331;51.378;0.018;2023-03-14T01:33:53;4.47;;;0.60;;
26060;SDS011;36331;51.378;0.018;2023-03-14T01:36:22;5.05;;;1.23;;
26060;SDS011;36331;51.378;0.018;2023-03-14T01:38:53;0.40;;;0.20;;
26060;SDS011;36331;51.378;0.018;2023-03-14T01:41:23;2.78;;;0.50;;
26060;SDS011;36331;51.378;0.018;2023-03-14T01:43:55;2.35;;;0.40;;
26060;SDS011;36331;51.378;0.018;2023-03-14T01:46:28;1.35;;;0.30;;
26060;SDS011;36331;51.378;0.018;2023-03-14T01:48:59;0.55;;;0.30;;
26060;SDS011;36331;51.378;0.018;2023-03-14T01:51:33;1.00;;;0.40;;
26060;SDS011;36331;51.378;0.018;2023-03-14T01:54:05;0.63;;;0.57;;
26060;SDS011;36331;51.378;0.018;2023-03-14T01:56:36;1.30;;;0.55;;
26060;SDS011;36331;51.378;0.018;2023-03-14T01:59:06;1.70;;;0.60;;
26060;SDS011;36331;51.378;0.018;2023-03-14T02:01:37;1.85;;;0.52;;
26060;SDS011;36331;51.378;0.018;2023-03-14T02:04:08;0.57;;;0.43;;
26060;SDS011;36331;51.378;0.018;2023-03-14T02:06:47;0.32;;;0.32;;
26060;SDS011;36331;51.378;0.018;2023-03-14T02:09:20;0.63;;;0.57;;
26060;SDS011;36331;51.378;0.018;2023-03-14T02:11:50;0.40;;;0.40;;
26060;SDS011;36331;51.378;0.018;2023-03-14T02:14:40;1.52;;;0.40;;
26060;SDS011;36331;51.378;0.018;2023-03-14T02:17:30;2.78;;;0.65;;
26060;SDS011;36331;51.378;0.018;2023-03-14T02:20:23;1.38;;;0.50;;
26060;SDS011;36331;51.378;0.018;2023-03-14T02:22:56;1.50;;;0.50;;
26060;SDS011;36331;51.378;0.018;2023-03-14T02:25:30;1.48;;;0.60;;
26060;SDS011;36331;51.378;0.018;2023-03-14T02:28:03;0.52;;;0.52;;
26060;SDS011;36331;51.378;0.018;2023-03-14T02:30:33;1.05;;;0.80;;
26060;SDS011;36331;51.378;0.018;2023-03-14T02:33:05;1.08;;;0.80;;
26060;SDS011;36331;51.378;0.018;2023-03-14T02:35:35;1.90;;;0.43;;
26060;SDS011;36331;51.378;0.018;2023-03-14T02:38:06;2.92;;;1.00;;
26060;SDS011;36331;51.378;0.018;2023-03-14T02:40:41;1.45;;;0.50;;
26060;SDS011;36331;51.378;0.018;2023-03-14T02:43:12;1.52;;;0.70;;
26060;SDS011;36331;51.378;0.018;2023-03-14T02:45:47;1.38;;;0.60;;
26060;SDS011;36331;51.378;0.018;2023-03-14T02:48:20;2.75;;;0.63;;
26060;SDS011;36331;51.378;0.018;2023-03-14T02:50:50;2.03;;;0.63;;
26060;SDS011;36331;51.378;0.018;2023-03-14T02:53:21;1.23;;;0.60;;
26060;SDS011;36331;51.378;0.018;2023-03-14T02:55:55;1.50;;;0.70;;
26060;SDS011;36331;51.378;0.018;2023-03-14T02:58:26;4.30;;;1.13;;
26060;SDS011;36331;51.378;0.018;2023-03-14T03:01:02;0.80;;;0.63;;
26060;SDS011;36331;51.378;0.018;2023-03-14T03:03:32;0.73;;;0.40;;
26060;SDS011;36331;51.378;0.018;2023-03-14T03:06:01;5.38;;;1.00;;
26060;SDS011;36331;51.378;0.018;2023-03-14T03:08:30;0.73;;;0.40;;
26060;SDS011;36331;51.378;0.018;2023-03-14T03:11:00;2.15;;;0.60;;
26060;SDS011;36331;51.378;0.018;2023-03-14T03:13:33;2.97;;;0.68;;
26060;SDS011;36331;51.378;0.018;2023-03-14T03:16:04;1.20;;;0.30;;
26060;SDS011;36331;51.378;0.018;2023-03-14T03:18:34;4.75;;;1.50;;
26060;SDS011;36331;51.378;0.018;2023-03-14T03:21:04;0.43;;;0.30;;
26060;SDS011;36331;51.378;0.018;2023-03-14T03:23:36;0.47;;;0.25;;
26060;SDS011;36331;51.378;0.018;2023-03-14T03:26:05;1.40;;;0.45;;
26060;SDS011;36331;51.378;0.018;2023-03-14T03:28:36;0.45;;;0.32;;
26060;SDS011;36331;51.378;0.018;2023-03-14T03:31:06;3.47;;;0.50;;
26060;SDS011;36331;51.378;0.018;2023-03-14T03:33:36;1.60;;;0.50;;
26060;SDS011;36331;51.378;0.018;2023-03-14T03:36:06;1.25;;;0.45;;
26060;SDS011;36331;51.378;0.018;2023-03-14T03:38:38;1.88;;;1.33;;
26060;SDS011;36331;51.378;0.018;2023-03-14T03:41:08;2.92;;;0.60;;
26060;SDS011;36331;51.378;0.018;2023-03-14T03:43:39;1.45;;;0.60;;
26060;SDS011;36331;51.378;0.018;2023-03-14T03:46:10;1.88;;;0.30;;
26060;SDS011;36331;51.378;0.018;2023-03-14T03:48:40;2.45;;;0.50;;
26060;SDS011;36331;51.378;0.018;2023-03-14T03:51:11;0.20;;;0.20;;
26060;SDS011;36331;51.378;0.018;2023-03-14T03:53:41;0.55;;;0.30;;
26060;SDS011;36331;51.378;0.018;2023-03-14T03:58:44;2.15;;;0.40;;
26060;SDS011;36331;51.378;0.018;2023-03-14T04:01:13;2.85;;;0.77;;
26060;SDS011;36331;51.378;0.018;2023-03-14T04:03:46;2.88;;;0.45;;
26060;SDS011;36331;51.378;0.018;2023-03-14T04:06:18;1.40;;;0.30;;
26060;SDS011;36331;51.378;0.018;2023-03-14T04:08:49;1.38;;;0.35;;
26060;SDS011;36331;51.378;0.018;2023-03-14T04:11:47;0.65;;;0.40;;
26060;SDS011;36331;51.378;0.018;2023-03-14T04:14:21;2.60;;;0.50;;
26060;SDS011;36331;51.378;0.018;2023-03-14T04:17:08;1.83;;;0.40;;
26060;SDS011;36331;51.378;0.018;2023-03-14T04:19:38;2.97;;;0.50;;
26060;SDS011;36331;51.378;0.018;2023-03-14T04:22:07;0.30;;;0.30;;
26060;SDS011;36331;51.378;0.018;2023-03-14T04:24:45;1.02;;;0.73;;
26060;SDS011;36331;51.378;0.018;2023-03-14T04:27:15;1.40;;;0.40;;
26060;SDS011;36331;51.378;0.018;2023-03-14T04:29:47;1.10;;;0.52;;
26060;SDS011;36331;51.378;0.018;2023-03-14T04:32:21;2.85;;;0.52;;
26060;SDS011;36331;51.378;0.018;2023-03-14T04:34:50;3.63;;;0.50;;
26060;SDS011;36331;51.378;0.018;2023-03-14T04:37:20;3.28;;;0.63;;
26060;SDS011;36331;51.378;0.018;2023-03-14T04:39:49;1.48;;;0.57;;
26060;SDS011;36331;51.378;0.018;2023-03-14T04:42:25;1.25;;;0.60;;
26060;SDS011;36331;51.378;0.018;2023-03-14T04:44:55;3.38;;;1.25;;
26060;SDS011;36331;51.378;0.018;2023-03-14T04:47:27;2.05;;;0.68;;
26060;SDS011;36331;51.378;0.018;2023-03-14T04:49:57;2.33;;;0.38;;
26060;SDS011;36331;51.378;0.018;2023-03-14T04:52:26;2.33;;;0.60;;
26060;SDS011;36331;51.378;0.018;2023-03-14T04:54:57;2.38;;;0.43;;
26060;SDS011;36331;51.378;0.018;2023-03-14T04:57:27;2.25;;;1.15;;
26060;SDS011;36331;51.378;0.018;2023-03-14T04:59:58;2.55;;;0.80;;
26060;SDS011;36331;51.378;0.018;2023-03-14T05:02:44;2.70;;;0.50;;
26060;SDS011;36331;51.378;0.018;2023-03-14T05:05:23;1.45;;;0.65;;
26060;SDS011;36331;51.378;0.018;2023-03-14T05:08:15;4.18;;;1.02;;
26060;SDS011;36331;51.378;0.018;2023-03-14T05:11:01;4.00;;;0.68;;
26060;SDS011;36331;51.378;0.018;2023-03-14T05:13:38;3.83;;;0.88;;
26060;SDS011;36331;51.378;0.018;2023-03-14T05:16:18;7.15;;;2.10;;
26060;SDS011;36331;51.378;0.018;2023-03-14T05:19:06;3.20;;;1.23;;
26060;SDS011;36331;51.378;0.018;2023-03-14T05:21:44;6.13;;;0.70;;
26060;SDS011;36331;51.378;0.018;2023-03-14T05:24:27;6.07;;;1.20;;
26060;SDS011;36331;51.378;0.018;2023-03-14T05:27:14;2.80;;;0.63;;
26060;SDS011;36331;51.378;0.018;2023-03-14T05:29:43;4.68;;;0.80;;
26060;SDS011;36331;51.378;0.018;2023-03-14T05:32:22;1.65;;;0.60;;
26060;SDS011;36331;51.378;0.018;2023-03-14T05:34:55;4.35;;;0.68;;
26060;SDS011;36331;51.378;0.018;2023-03-14T05:37:34;5.63;;;0.75;;
26060;SDS011;36331;51.378;0.018;2023-03-14T05:40:09;5.93;;;1.20;;
26060;SDS011;36331;51.378;0.018;2023-03-14T05:43:01;4.38;;;0.63;;
26060;SDS011;36331;51.378;0.018;2023-03-14T05:45:30;6.38;;;1.25;;
26060;SDS011;36331;51.378;0.018;2023-03-14T05:48:16;0.90;;;0.55;;
26060;SDS011;36331;51.378;0.018;2023-03-14T05:51:11;4.75;;;0.85;;
26060;SDS011;36331;51.378;0.018;2023-03-14T05:53:59;4.70;;;0.63;;
26060;SDS011;36331;51.378;0.018;2023-03-14T05:56:33;8.93;;;1.13;;
26060;SDS011;36331;51.378;0.018;2023-03-14T05:59:08;3.00;;;1.00;;
26060;SDS011;36331;51.378;0.018;2023-03-14T06:01:57;3.80;;;1.02;;
26060;SDS011;36331;51.378;0.018;2023-03-14T06:04:36;5.95;;;0.80;;
26060;SDS011;36331;51.378;0.018;2023-03-14T06:07:06;3.03;;;1.00;;
26060;SDS011;36331;51.378;0.018;2023-03-14T06:09:35;2.33;;;0.70;;
26060;SDS011;36331;51.378;0.018;2023-03-14T06:12:06;6.00;;;1.20;;
26060;SDS011;36331;51.378;0.018;2023-03-14T06:14:41;5.25;;;0.85;;
26060;SDS011;36331;51.378;0.018;2023-03-14T06:17:11;3.22;;;0.80;;
26060;SDS011;36331;51.378;0.018;2023-03-14T06:19:51;6.03;;;0.63;;
26060;SDS011;36331;51.378;0.018;2023-03-14T06:22:21;5.55;;;1.30;;
26060;SDS011;36331;51.378;0.018;2023-03-14T06:24:50;4.15;;;0.50;;
26060;SDS011;36331;51.378;0.018;2023-03-14T06:27:21;2.03;;;0.70;;
26060;SDS011;36331;51.378;0.018;2023-03-14T06:29:53;10.70;;;1.10;;
26060;SDS011;36331;51.378;0.018;2023-03-14T06:32:24;2.35;;;0.60;;
26060;SDS011;36331;51.378;0.018;2023-03-14T06:34:59;3.20;;;1.17;;
26060;SDS011;36331;51.378;0.018;2023-03-14T06:37:33;3.17;;;0.68;;
26060;SDS011;36331;51.378;0.018;2023-03-14T06:43:04;4.07;;;1.08;;
26060;SDS011;36331;51.378;0.018;2023-03-14T06:45:35;4.18;;;0.98;;
26060;SDS011;36331;51.378;0.018;2023-03-14T06:48:05;8.52;;;1.15;;
26060;SDS011;36331;51.378;0.018;2023-03-14T06:50:41;7.00;;;1.10;;
26060;SDS011;36331;51.378;0.018;2023-03-14T06:53:11;4.85;;;0.80;;
26060;SDS011;36331;51.378;0.018;2023-03-14T06:55:43;4.28;;;1.00;;
26060;SDS011;36331;51.378;0.018;2023-03-14T07:00:44;5.88;;;1.02;;
26060;SDS011;36331;51.378;0.018;2023-03-14T07:03:20;7.22;;;0.88;;
26060;SDS011;36331;51.378;0.018;2023-03-14T07:05:53;8.27;;;1.73;;
26060;SDS011;36331;51.378;0.018;2023-03-14T07:08:22;10.43;;;1.60;;
26060;SDS011;36331;51.378;0.018;2023-03-14T07:10:52;3.20;;;0.90;;
26060;SDS011;36331;51.378;0.018;2023-03-14T07:13:21;4.88;;;0.80;;
26060;SDS011;36331;51.378;0.018;2023-03-14T07:15:57;2.67;;;0.52;;
26060;SDS011;36331;51.378;0.018;2023-03-14T07:18:27;10.05;;;1.83;;
26060;SDS011;36331;51.378;0.018;2023-03-14T07:20:57;2.83;;;0.40;;
26060;SDS011;36331;51.378;0.018;2023-03-14T07:23:26;6.65;;;0.90;;
26060;SDS011;36331;51.378;0.018;2023-03-14T07:25:56;2.67;;;1.10;;
26060;SDS011;36331;51.378;0.018;2023-03-14T07:28:26;5.40;;;1.42;;
26060;SDS011;36331;51.378;0.018;2023-03-14T07:31:01;2.65;;;0.70;;
26060;SDS011;36331;51.378;0.018;2023-03-14T07:33:32;1.95;;;0.55;;
26060;SDS011;36331;51.378;0.018;2023-03-14T07:36:03;3.70;;;1.23;;
26060;SDS011;36331;51.378;0.018;2023-03-14T07:38:33;2.97;;;0.77;;
26060;SDS011;36331;51.378;0.018;2023-03-14T07:41:12;3.13;;;0.57;;
26060;SDS011;36331;51.378;0.018;2023-03-14T07:44:07;2.55;;;0.73;;
26060;SDS011;36331;51.378;0.018;2023-03-14T07:46:36;1.27;;;0.50;;
26060;SDS011;36331;51.378;0.018;2023-03-14T07:49:05;7.72;;;2.20;;
26060;SDS011;36331;51.378;0.018;2023-03-14T07:51:36;7.10;;;1.83;;
26060;SDS011;36331;51.378;0.018;2023-03-14T07:54:05;4.10;;;0.90;;
26060;SDS011;36331;51.378;0.018;2023-03-14T07:56:34;3.00;;;0.80;;
26060;SDS011;36331;51.378;0.018;2023-03-14T07:59:03;1.88;;;0.52;;
26060;SDS011;36331;51.378;0.018;2023-03-14T08:01:32;1.73;;;0.90;;
26060;SDS011;36331;51.378;0.018;2023-03-14T08:04:01;6.72;;;1.70;;
26060;SDS011;36331;51.378;0.018;2023-03-14T08:06:31;2.92;;;0.60;;
26060;SDS011;36331;51.378;0.018;2023-03-14T08:09:01;4.03;;;1.20;;
26060;SDS011;36331;51.378;0.018;2023-03-14T08:11:30;4.07;;;0.80;;
26060;SDS011;36331;51.378;0.018;2023-03-14T08:13:59;5.22;;;1.02;;
26060;SDS011;36331;51.378;0.018;2023-03-14T08:16:29;2.65;;;0.60;;
26060;SDS011;36331;51.378;0.018;2023-03-14T08:18:59;1.83;;;1.10;;
26060;SDS011;36331;51.378;0.018;2023-03-14T08:21:28;2.20;;;0.75;;
26060;SDS011;36331;51.378;0.018;2023-03-14T08:23:56;1.45;;;0.45;;
26060;SDS011;36331;51.378;0.018;2023-03-14T08:26:27;1.98;;;1.02;;
26060;SDS011;36331;51.378;0.018;2023-03-14T08:28:56;1.27;;;0.45;;
26060;SDS011;36331;51.378;0.018;2023-03-14T08:31:25;0.55;;;0.50;;
26060;SDS011;36331;51.378;0.018;2023-03-14T08:33:54;0.88;;;0.60;;
26060;SDS011;36331;51.378;0.018;2023-03-14T08:36:23;1.02;;;0.80;;
26060;SDS011;36331;51.378;0.018;2023-03-14T08:38:52;1.42;;;0.70;;
26060;SDS011;36331;51.378;0.018;2023-03-14T08:41:21;2.75;;;0.65;;
26060;SDS011;36331;51.378;0.018;2023-03-14T08:43:52;0.85;;;0.70;;
26060;SDS011;36331;51.378;0.018;2023-03-14T08:46:21;2.47;;;0.60;;
26060;SDS011;36331;51.378;0.018;2023-03-14T08:48:50;0.75;;;0.70;;
26060;SDS011;36331;51.378;0.018;2023-03-14T08:51:19;0.82;;;0.55;;
26060;SDS011;36331;51.378;0.018;2023-03-14T08:53:48;2.88;;;0.70;;
26060;SDS011;36331;51.378;0.018;2023-03-14T08:56:17;2.25;;;0.65;;
26060;SDS011;36331;51.378;0.018;2023-03-14T08:58:46;1.30;;;0.68;;
26060;SDS011;36331;51.378;0.018;2023-03-14T09:01:17;1.77;;;0.70;;
26060;SDS011;36331;51.378;0.018;2023-03-14T09:03:47;1.30;;;0.73;;
26060;SDS011;36331;51.378;0.018;2023-03-14T09:06:16;2.72;;;0.60;;
26060;SDS011;36331;51.378;0.018;2023-03-14T09:08:45;0.82;;;0.50;;
26060;SDS011;36331;51.378;0.018;2023-03-14T09:11:14;0.73;;;0.70;;
26060;SDS011;36331;51.378;0.018;2023-03-14T09:13:45;0.40;;;0.40;;
26060;SDS011;36331;51.378;0.018;2023-03-14T09:16:17;0.50;;;0.38;;
26060;SDS011;36331;51.378;0.018;2023-03-14T09:18:47;0.30;;;0.30;;
26060;SDS011;36331;51.378;0.018;2023-03-14T09:21:17;0.60;;;0.40;;
26060;SDS011;36331;51.378;0.018;2023-03-14T09:23:45;0.35;;;0.30;;
26060;SDS011;36331;51.378;0.018;2023-03-14T09:26:15;0.55;;;0.30;;
26060;SDS011;36331;51.378;0.018;2023-03-14T09:28:44;0.40;;;0.30;;
26060;SDS011;36331;51.378;0.018;2023-03-14T09:31:13;0.40;;;0.40;;
26060;SDS011;36331;51.378;0.018;2023-03-14T09:33:44;0.30;;;0.30;;
26060;SDS011;36331;51.378;0.018;2023-03-14T09:36:13;0.68;;;0.55;;
26060;SDS011;36331;51.378;0.018;2023-03-14T09:38:43;1.05;;;0.47;;
26060;SDS011;36331;51.378;0.018;2023-03-14T09:41:13;1.83;;;0.50;;
26060;SDS011;36331;51.378;0.018;2023-03-14T09:43:43;0.37;;;0.37;;
26060;SDS011;36331;51.378;0.018;2023-03-14T09:46:14;1.90;;;0.55;;
26060;SDS011;36331;51.378;0.018;2023-03-14T09:48:45;0.60;;;0.57;;
26060;SDS011;36331;51.378;0.018;2023-03-14T09:51:15;1.40;;;0.60;;
26060;SDS011;36331;51.378;0.018;2023-03-14T09:53:45;2.50;;;1.08;;
26060;SDS011;36331;51.378;0.018;2023-03-14T09:56:16;0.52;;;0.40;;
26060;SDS011;36331;51.378;0.018;2023-03-14T09:58:47;1.08;;;0.60;;
26060;SDS011;36331;51.378;0.018;2023-03-14T10:01:18;5.45;;;1.20;;
26060;SDS011;36331;51.378;0.018;2023-03-14T10:03:50;4.07;;;1.30;;
26060;SDS011;36331;51.378;0.018;2023-03-14T10:08:50;2.97;;;0.80;;
26060;SDS011;36331;51.378;0.018;2023-03-14T10:11:20;2.80;;;1.20;;
26060;SDS011;36331;51.378;0.018;2023-03-14T10:13:53;3.45;;;1.40;;
26060;SDS011;36331;51.378;0.018;2023-03-14T10:16:31;5.50;;;1.80;;
26060;SDS011;36331;51.378;0.018;2023-03-14T10:19:03;4.03;;;1.20;;
26060;SDS011;36331;51.378;0.018;2023-03-14T10:21:35;3.03;;;1.33;;
26060;SDS011;36331;51.378;0.018;2023-03-14T10:24:18;2.85;;;1.67;;
26060;SDS011;36331;51.378;0.018;2023-03-14T10:26:48;2.85;;;1.58;;
26060;SDS011;36331;51.378;0.018;2023-03-14T10:29:18;6.32;;;1.52;;
26060;SDS011;36331;51.378;0.018;2023-03-14T10:31:50;4.75;;;1.20;;
26060;SDS011;36331;51.378;0.018;2023-03-14T10:34:23;4.77;;;1.70;;
26060;SDS011;36331;51.378;0.018;2023-03-14T10:36:53;2.60;;;1.10;;
26060;SDS011;36331;51.378;0.018;2023-03-14T10:39:34;3.88;;;1.40;;
26060;SDS011;36331;51.378;0.018;2023-03-14T10:42:09;4.18;;;1.05;;
26060;SDS011;36331;51.378;0.018;2023-03-14T10:44:42;7.28;;;1.55;;
26060;SDS011;36331;51.378;0.018;2023-03-14T10:47:15;6.50;;;1.40;;
26060;SDS011;36331;51.378;0.018;2023-03-14T10:49:46;4.30;;;1.20;;
26060;SDS011;36331;51.378;0.018;2023-03-14T10:52:19;3.42;;;1.55;;
26060;SDS011;36331;51.378;0.018;2023-03-14T10:55:10;3.00;;;1.35;;
26060;SDS011;36331;51.378;0.018;2023-03-14T10:57:40;5.20;;;1.77;;
26060;SDS011;36331;51.378;0.018;2023-03-14T11:00:11;8.35;;;1.70;;
26060;SDS011;36331;51.378;0.018;2023-03-14T11:02:49;2.53;;;0.90;;
26060;SDS011;36331;51.378;0.018;2023-03-14T11:05:27;1.80;;;0.88;;
26060;SDS011;36331;51.378;0.018;2023-03-14T11:07:59;4.10;;;1.60;;
26060;SDS011;36331;51.378;0.018;2023-03-14T11:10:35;1.20;;;0.60;;
26060;SDS011;36331;51.378;0.018;2023-03-14T11:13:11;9.23;;;1.73;;
26060;SDS011;36331;51.378;0.018;2023-03-14T11:15:48;1.60;;;0.70;;
26060;SDS011;36331;51.378;0.018;2023-03-14T11:18:26;2.42;;;0.63;;
26060;SDS011;36331;51.378;0.018;2023-03-14T11:21:01;3.63;;;1.00;;
26060;SDS011;36331;51.378;0.018;2023-03-14T11:23:31;3.05;;;0.50;;
26060;SDS011;36331;51.378;0.018;2023-03-14T11:26:08;5.60;;;0.98;;
26060;SDS011;36331;51.378;0.018;2023-03-14T11:28:39;4.63;;;0.70;;
26060;SDS011;36331;51.378;0.018;2023-03-14T11:31:12;3.30;;;0.80;;
26060;SDS011;36331;51.378;0.018;2023-03-14T11:33:46;5.88;;;1.20;;
26060;SDS011;36331;51.378;0.018;2023-03-14T11:36:19;5.18;;;1.20;;
26060;SDS011;36331;51.378;0.018;2023-03-14T11:38:49;4.45;;;1.33;;
26060;SDS011;36331;51.378;0.018;2023-03-14T11:41:20;3.80;;;1.00;;
26060;SDS011;36331;51.378;0.018;2023-03-14T11:46:21;4.82;;;1.13;;
26060;SDS011;36331;51.378;0.018;2023-03-14T11:48:55;4.20;;;1.13;;
26060;SDS011;36331;51.378;0.018;2023-03-14T11:51:29;3.35;;;0.90;;
26060;SDS011;36331;51.378;0.018;2023-03-14T11:54:02;6.68;;;1.52;;
26060;SDS011;36331;51.378;0.018;2023-03-14T11:56:46;4.50;;;1.15;;
26060;SDS011;36331;51.378;0.018;2023-03-14T11:59:18;3.72;;;1.02;;
26060;SDS011;36331;51.378;0.018;2023-03-14T12:01:53;3.17;;;1.10;;
26060;SDS011;36331;51.378;0.018;2023-03-14T12:04:41;4.82;;;0.95;;
26060;SDS011;36331;51.378;0.018;2023-03-14T12:07:18;4.90;;;1.50;;
26060;SDS011;36331;51.378;0.018;2023-03-14T12:09:48;3.83;;;1.27;;
26060;SDS011;36331;51.378;0.018;2023-03-14T12:12:19;5.88;;;1.42;;
26060;SDS011;36331;51.378;0.018;2023-03-14T12:14:55;6.03;;;2.42;;
26060;SDS011;36331;51.378;0.018;2023-03-14T12:17:26;5.82;;;1.38;;
26060;SDS011;36331;51.378;0.018;2023-03-14T12:20:04;3.00;;;0.95;;
26060;SDS011;36331;51.378;0.018;2023-03-14T12:22:36;6.68;;;0.70;;
26060;SDS011;36331;51.378;0.018;2023-03-14T12:25:14;5.82;;;1.60;;
26060;SDS011;36331;51.378;0.018;2023-03-14T12:27:45;5.95;;;1.02;;
26060;SDS011;36331;51.378;0.018;2023-03-14T12:30:18;4.57;;;1.27;;
26060;SDS011;36331;51.378;0.018;2023-03-14T12:35:42;6.28;;;1.33;;
26060;SDS011;36331;51.378;0.018;2023-03-14T12:38:14;4.50;;;1.80;;
26060;SDS011;36331;51.378;0.018;2023-03-14T12:40:47;1.58;;;0.75;;
26060;SDS011;36331;51.378;0.018;2023-03-14T12:43:24;5.32;;;0.95;;
26060;SDS011;36331;51.378;0.018;2023-03-14T12:46:14;3.20;;;0.63;;
26060;SDS011;36331;51.378;0.018;2023-03-14T12:48:44;4.10;;;0.80;;
26060;SDS011;36331;51.378;0.018;2023-03-14T12:51:14;3.38;;;0.80;;
26060;SDS011;36331;51.378;0.018;2023-03-14T12:54:02;4.35;;;0.80;;
26060;SDS011;36331;51.378;0.018;2023-03-14T12:56:38;2.00;;;1.07;;
26060;SDS011;36331;51.378;0.018;2023-03-14T12:59:14;2.08;;;0.75;;
26060;SDS011;36331;51.378;0.018;2023-03-14T13:01:47;2.63;;;0.85;;
26060;SDS011;36331;51.378;0.018;2023-03-14T13:04:17;4.82;;;1.20;;
26060;SDS011;36331;51.378;0.018;2023-03-14T13:06:59;4.18;;;0.82;;
26060;SDS011;36331;51.378;0.018;2023-03-14T13:12:23;1.75;;;0.60;;
26060;SDS011;36331;51.378;0.018;2023-03-14T13:14:58;4.25;;;1.35;;
26060;SDS011;36331;51.378;0.018;2023-03-14T13:17:30;2.17;;;0.80;;
26060;SDS011;36331;51.378;0.018;2023-03-14T13:20:04;3.38;;;1.00;;
26060;SDS011;36331;51.378;0.018;2023-03-14T13:22:38;4.60;;;0.80;;
26060;SDS011;36331;51.378;0.018;2023-03-14T13:25:14;4.13;;;0.80;;
26060;SDS011;36331;51.378;0.018;2023-03-14T13:27:47;2.60;;;0.40;;
26060;SDS011;36331;51.378;0.018;2023-03-14T13:30:22;2.23;;;0.50;;
26060;SDS011;36331;51.378;0.018;2023-03-14T13:32:51;2.58;;;1.00;;
26060;SDS011;36331;51.378;0.018;2023-03-14T13:35:23;3.95;;;0.77;;
26060;SDS011;36331;51.378;0.018;2023-03-14T13:37:55;3.13;;;0.82;;
26060;SDS011;36331;51.378;0.018;2023-03-14T13:40:37;1.88;;;0.73;;
26060;SDS011;36331;51.378;0.018;2023-03-14T13:43:21;2.28;;;0.65;;
26060;SDS011;36331;51.378;0.018;2023-03-14T13:45:53;2.75;;;0.65;;
26060;SDS011;36331;51.378;0.018;2023-03-14T13:48:25;2.45;;;0.60;;
26060;SDS011;36331;51.378;0.018;2023-03-14T13:53:24;5.05;;;0.70;;
26060;SDS011;36331;51.378;0.018;2023-03-14T13:55:54;3.33;;;0.60;;
26060;SDS011;36331;51.378;0.018;2023-03-14T13:58:26;2.50;;;0.50;;
26060;SDS011;36331;51.378;0.018;2023-03-14T14:00:58;4.13;;;1.15;;
26060;SDS011;36331;51.378;0.018;2023-03-14T14:03:30;3.00;;;0.63;;
26060;SDS011;36331;51.378;0.018;2023-03-14T14:06:00;3.65;;;0.70;;
26060;SDS011;36331;51.378;0.018;2023-03-14T14:08:33;2.45;;;0.57;;
26060;SDS011;36331;51.378;0.018;2023-03-14T14:11:04;6.18;;;0.80;;
26060;SDS011;36331;51.378;0.018;2023-03-14T14:13:35;2.10;;;0.60;;
26060;SDS011;36331;51.378;0.018;2023-03-14T14:16:05;3.53;;;1.10;;
26060;SDS011;36331;51.378;0.018;2023-03-14T14:18:35;5.43;;;0.80;;
26060;SDS011;36331;51.378;0.018;2023-03-14T14:21:05;2.78;;;0.55;;
26060;SDS011;36331;51.378;0.018;2023-03-14T14:23:36;4.35;;;1.15;;
26060;SDS011;36331;51.378;0.018;2023-03-14T14:26:13;2.70;;;0.55;;
26060;SDS011;36331;51.378;0.018;2023-03-14T14:28:45;1.48;;;0.57;;
26060;SDS011;36331;51.378;0.018;2023-03-14T14:31:17;4.00;;;0.60;;
26060;SDS011;36331;51.378;0.018;2023-03-14T14:33:54;2.67;;;0.80;;
26060;SDS011;36331;51.378;0.018;2023-03-14T14:36:25;3.10;;;0.77;;
26060;SDS011;36331;51.378;0.018;2023-03-14T14:39:00;1.92;;;0.70;;
26060;SDS011;36331;51.378;0.018;2023-03-14T14:41:30;4.22;;;0.65;;
26060;SDS011;36331;51.378;0.018;2023-03-14T14:44:02;1.83;;;0.73;;
26060;SDS011;36331;51.378;0.018;2023-03-14T14:46:33;2.00;;;0.65;;
26060;SDS011;36331;51.378;0.018;2023-03-14T14:49:03;4.73;;;0.83;;
26060;SDS011;36331;51.378;0.018;2023-03-14T14:51:37;1.17;;;0.47;;
26060;SDS011;36331;51.378;0.018;2023-03-14T14:54:11;3.65;;;1.48;;
26060;SDS011;36331;51.378;0.018;2023-03-14T14:56:46;1.10;;;0.52;;
26060;SDS011;36331;51.378;0.018;2023-03-14T14:59:23;1.55;;;0.65;;
26060;SDS011;36331;51.378;0.018;2023-03-14T15:01:57;3.58;;;0.80;;
26060;SDS011;36331;51.378;0.018;2023-03-14T15:04:27;7.38;;;2.85;;
26060;SDS011;36331;51.378;0.018;2023-03-14T15:06:58;2.30;;;0.80;;
26060;SDS011;36331;51.378;0.018;2023-03-14T15:09:27;5.00;;;1.13;;
26060;SDS011;36331;51.378;0.018;2023-03-14T15:11:57;7.95;;;0.98;;
26060;SDS011;36331;51.378;0.018;2023-03-14T15:14:28;4.50;;;0.70;;
26060;SDS011;36331;51.378;0.018;2023-03-14T15:16:57;3.60;;;0.60;;
26060;SDS011;36331;51.378;0.018;2023-03-14T15:19:27;2.83;;;0.68;;
26060;SDS011;36331;51.378;0.018;2023-03-14T15:21:57;3.17;;;0.80;;
26060;SDS011;36331;51.378;0.018;2023-03-14T15:24:26;3.83;;;0.60;;
26060;SDS011;36331;51.378;0.018;2023-03-14T15:26:55;3.70;;;0.77;;
26060;SDS011;36331;51.378;0.018;2023-03-14T15:29:24;2.95;;;0.77;;
26060;SDS011;36331;51.378;0.018;2023-03-14T15:31:57;2.40;;;0.73;;
26060;SDS011;36331;51.378;0.018;2023-03-14T15:34:26;3.03;;;0.60;;
26060;SDS011;36331;51.378;0.018;2023-03-14T15:36:55;6.30;;;0.82;;
26060;SDS011;36331;51.378;0.018;2023-03-14T15:39:24;1.23;;;0.30;;
26060;SDS011;36331;51.378;0.018;2023-03-14T15:41:53;1.70;;;0.40;;